sensor_id;sensor_type;location;lat;lon;timestamp;pressure;altitude;pressure_sealevel;temperature
58929;BMP180;44713;53.378;10.022;2023-01-26T00:02:15;102134.00;;;-0.80
58929;BMP180;44713;53.378;10.022;2023-01-26T00:04:40;102136.00;;;-0.70
58929;BMP180;44713;53.378;10.022;2023-01-26T00:07:06;102141.00;;;-0.80
58929;BMP180;44713;53.378;10.022;2023-01-26T00:09:31;102137.00;;;-0.70
58929;BMP180;44713;53.378;10.022;2023-01-26T00:11:56;102141.00;;;-0.70
58929;BMP180;44713;53.378;10.022;2023-01-26T00:14:22;102132.00;;;-0.70
58929;BMP180;44713;53.378;10.022;2023-01-26T00:16:47;102131.00;;;-0.80
58929;BMP180;44713;53.378;10.022;2023-01-26T00:19:12;102133.00;;;-0.80
58929;BMP180;44713;53.378;10.022;2023-01-26T00:21:38;102120.00;;;-0.80
58929;BMP180;44713;53.378;10.022;2023-01-26T00:24:03;102121.00;;;-0.80
58929;BMP180;44713;53.378;10.022;2023-01-26T00:26:29;102115.00;;;-0.70
58929;BMP180;44713;53.378;10.022;2023-01-26T00:28:54;102115.00;;;-0.70
58929;BMP180;44713;53.378;10.022;2023-01-26T00:31:23;102120.00;;;-0.70
58929;BMP180;44713;53.378;10.022;2023-01-26T00:33:50;102114.00;;;-0.60
58929;BMP180;44713;53.378;10.022;2023-01-26T00:36:16;102100.00;;;-0.60
58929;BMP180;44713;53.378;10.022;2023-01-26T00:38:41;102103.00;;;-0.60
58929;BMP180;44713;53.378;10.022;2023-01-26T00:41:07;102104.00;;;-0.70
58929;BMP180;44713;53.378;10.022;2023-01-26T00:43:33;102102.00;;;-0.60
58929;BMP180;44713;53.378;10.022;2023-01-26T00:45:58;102095.00;;;-0.60
58929;BMP180;44713;53.378;10.022;2023-01-26T00:48:24;102103.00;;;-0.60
58929;BMP180;44713;53.378;10.022;2023-01-26T00:50:50;102095.00;;;-0.70
58929;BMP180;44713;53.378;10.022;2023-01-26T00:53:15;102088.00;;;-0.60
58929;BMP180;44713;53.378;10.022;2023-01-26T00:55:41;102087.00;;;-0.60
58929;BMP180;44713;53.378;10.022;2023-01-26T00:58:07;102083.00;;;-0.70
58929;BMP180;44713;53.378;10.022;2023-01-26T01:00:35;102077.00;;;-0.80
58929;BMP180;44713;53.378;10.022;2023-01-26T01:03:03;102071.00;;;-0.60
58929;BMP180;44713;53.378;10.022;2023-01-26T01:05:31;102064.00;;;-0.60
58929;BMP180;44713;53.378;10.022;2023-01-26T01:07:57;102065.00;;;-0.60
58929;BMP180;44713;53.378;10.022;2023-01-26T01:10:23;102063.00;;;-0.60
58929;BMP180;44713;53.378;10.022;2023-01-26T01:12:49;102062.00;;;-0.60
58929;BMP180;44713;53.378;10.022;2023-01-26T01:15:14;102062.00;;;-0.70
58929;BMP180;44713;53.378;10.022;2023-01-26T01:17:40;102064.00;;;-0.60
58929;BMP180;44713;53.378;10.022;2023-01-26T01:20:09;102070.00;;;-0.60
58929;BMP180;44713;53.378;10.022;2023-01-26T01:22:35;102068.00;;;-0.60
58929;BMP180;44713;53.378;10.022;2023-01-26T01:25:01;102068.00;;;-0.60
58929;BMP180;44713;53.378;10.022;2023-01-26T01:27:26;102064.00;;;-0.70
58929;BMP180;44713;53.378;10.022;2023-01-26T01:29:52;102065.00;;;-0.60
58929;BMP180;44713;53.378;10.022;2023-01-26T01:32:18;102062.00;;;-0.60
58929;BMP180;44713;53.378;10.022;2023-01-26T01:34:48;102058.00;;;-0.50
58929;BMP180;44713;53.378;10.022;2023-01-26T01:37:15;102065.00;;;-0.50
58929;BMP180;44713;53.378;10.022;2023-01-26T01:39:41;102068.00;;;-0.60
58929;BMP180;44713;53.378;10.022;2023-01-26T01:42:06;102064.00;;;-0.60
58929;BMP180;44713;53.378;10.022;2023-01-26T01:44:36;102060.00;;;-0.50
58929;BMP180;44713;53.378;10.022;2023-01-26T01:47:10;102062.00;;;-0.50
58929;BMP180;44713;53.378;10.022;2023-01-26T01:49:47;102054.00;;;-0.50
58929;BMP180;44713;53.378;10.022;2023-01-26T01:52:19;102050.00;;;-0.40
58929;BMP180;44713;53.378;10.022;2023-01-26T01:54:50;102054.00;;;-0.50
58929;BMP180;44713;53.378;10.022;2023-01-26T01:57:23;102050.00;;;-0.50
58929;BMP180;44713;53.378;10.022;2023-01-26T01:59:59;102043.00;;;-0.40
58929;BMP180;44713;53.378;10.022;2023-01-26T02:02:27;102050.00;;;-0.50
58929;BMP180;44713;53.378;10.022;2023-01-26T02:04:56;102046.00;;;-0.50
58929;BMP180;44713;53.378;10.022;2023-01-26T02:07:23;102046.00;;;-0.50
58929;BMP180;44713;53.378;10.022;2023-01-26T02:09:48;102040.00;;;-0.50
58929;BMP180;44713;53.378;10.022;2023-01-26T02:12:33;102041.00;;;-0.50
58929;BMP180;44713;53.378;10.022;2023-01-26T02:15:00;102041.00;;;-0.50
58929;BMP180;44713;53.378;10.022;2023-01-26T02:17:26;102045.00;;;-0.50
58929;BMP180;44713;53.378;10.022;2023-01-26T02:20:15;102037.00;;;-0.50
58929;BMP180;44713;53.378;10.022;2023-01-26T02:28:03;102043.00;;;-0.60
58929;BMP180;44713;53.378;10.022;2023-01-26T02:30:29;102037.00;;;-0.50
58929;BMP180;44713;53.378;10.022;2023-01-26T02:32:55;102035.00;;;-0.40
58929;BMP180;44713;53.378;10.022;2023-01-26T02:35:21;102038.00;;;-0.50
58929;BMP180;44713;53.378;10.022;2023-01-26T02:37:46;102032.00;;;-0.50
58929;BMP180;44713;53.378;10.022;2023-01-26T02:43:00;102027.00;;;-0.50
58929;BMP180;44713;53.378;10.022;2023-01-26T02:45:28;102023.00;;;-0.50
58929;BMP180;44713;53.378;10.022;2023-01-26T02:47:54;102024.00;;;-0.60
58929;BMP180;44713;53.378;10.022;2023-01-26T02:50:19;102020.00;;;-0.50
58929;BMP180;44713;53.378;10.022;2023-01-26T02:52:45;102014.00;;;-0.50
58929;BMP180;44713;53.378;10.022;2023-01-26T02:55:15;102012.00;;;-0.50
58929;BMP180;44713;53.378;10.022;2023-01-26T02:57:59;102010.00;;;-0.50
58929;BMP180;44713;53.378;10.022;2023-01-26T03:00:30;102014.00;;;-0.50
58929;BMP180;44713;53.378;10.022;2023-01-26T03:02:58;102007.00;;;-0.50
58929;BMP180;44713;53.378;10.022;2023-01-26T03:05:26;102002.00;;;-0.50
58929;BMP180;44713;53.378;10.022;2023-01-26T03:07:53;101992.00;;;-0.50
58929;BMP180;44713;53.378;10.022;2023-01-26T03:10:21;101998.00;;;-0.50
58929;BMP180;44713;53.378;10.022;2023-01-26T03:12:50;101999.00;;;-0.50
58929;BMP180;44713;53.378;10.022;2023-01-26T03:15:16;101995.00;;;-0.40
58929;BMP180;44713;53.378;10.022;2023-01-26T03:18:22;101998.00;;;-0.40
58929;BMP180;44713;53.378;10.022;2023-01-26T03:21:10;101980.00;;;-0.40
58929;BMP180;44713;53.378;10.022;2023-01-26T03:23:55;101987.00;;;-0.40
58929;BMP180;44713;53.378;10.022;2023-01-26T03:26:38;101993.00;;;-0.40
58929;BMP180;44713;53.378;10.022;2023-01-26T03:29:23;101989.00;;;-0.30
58929;BMP180;44713;53.378;10.022;2023-01-26T03:31:52;101982.00;;;-0.40
58929;BMP180;44713;53.378;10.022;2023-01-26T03:34:18;101986.00;;;-0.30
58929;BMP180;44713;53.378;10.022;2023-01-26T03:36:46;101987.00;;;-0.30
58929;BMP180;44713;53.378;10.022;2023-01-26T03:39:13;101993.00;;;-0.30
58929;BMP180;44713;53.378;10.022;2023-01-26T03:41:59;101996.00;;;-0.30
58929;BMP180;44713;53.378;10.022;2023-01-26T03:44:44;101987.00;;;-0.20
58929;BMP180;44713;53.378;10.022;2023-01-26T03:47:30;101988.00;;;-0.30
58929;BMP180;44713;53.378;10.022;2023-01-26T03:50:15;101982.00;;;-0.30
58929;BMP180;44713;53.378;10.022;2023-01-26T03:52:59;101977.00;;;-0.20
58929;BMP180;44713;53.378;10.022;2023-01-26T03:55:43;101991.00;;;-0.20
58929;BMP180;44713;53.378;10.022;2023-01-26T03:58:27;101982.00;;;-0.20
58929;BMP180;44713;53.378;10.022;2023-01-26T04:00:58;101985.00;;;-0.20
58929;BMP180;44713;53.378;10.022;2023-01-26T04:03:23;101976.00;;;-0.20
58929;BMP180;44713;53.378;10.022;2023-01-26T04:06:07;101987.00;;;-0.20
58929;BMP180;44713;53.378;10.022;2023-01-26T04:08:51;101988.00;;;-0.20
58929;BMP180;44713;53.378;10.022;2023-01-26T04:11:17;101983.00;;;-0.20
58929;BMP180;44713;53.378;10.022;2023-01-26T04:13:43;101988.00;;;-0.20
58929;BMP180;44713;53.378;10.022;2023-01-26T04:16:30;101981.00;;;-0.20
58929;BMP180;44713;53.378;10.022;2023-01-26T04:19:14;101990.00;;;-0.20
58929;BMP180;44713;53.378;10.022;2023-01-26T04:22:00;101980.00;;;-0.20
58929;BMP180;44713;53.378;10.022;2023-01-26T04:24:26;101985.00;;;-0.20
58929;BMP180;44713;53.378;10.022;2023-01-26T04:26:54;101987.00;;;-0.20
58929;BMP180;44713;53.378;10.022;2023-01-26T04:29:39;101976.00;;;-0.20
58929;BMP180;44713;53.378;10.022;2023-01-26T04:32:06;101982.00;;;-0.20
58929;BMP180;44713;53.378;10.022;2023-01-26T04:34:33;101971.00;;;-0.10
58929;BMP180;44713;53.378;10.022;2023-01-26T04:37:00;101973.00;;;-0.20
58929;BMP180;44713;53.378;10.022;2023-01-26T04:39:36;101970.00;;;-0.20
58929;BMP180;44713;53.378;10.022;2023-01-26T04:42:03;101966.00;;;-0.20
58929;BMP180;44713;53.378;10.022;2023-01-26T04:44:29;101966.00;;;-0.10
58929;BMP180;44713;53.378;10.022;2023-01-26T04:46:55;101963.00;;;-0.10
58929;BMP180;44713;53.378;10.022;2023-01-26T04:49:21;101968.00;;;-0.10
58929;BMP180;44713;53.378;10.022;2023-01-26T04:51:46;101969.00;;;-0.10
58929;BMP180;44713;53.378;10.022;2023-01-26T04:54:12;101962.00;;;-0.20
58929;BMP180;44713;53.378;10.022;2023-01-26T04:56:41;101954.00;;;-0.20
58929;BMP180;44713;53.378;10.022;2023-01-26T04:59:08;101964.00;;;-0.10
58929;BMP180;44713;53.378;10.022;2023-01-26T05:01:36;101959.00;;;-0.10
58929;BMP180;44713;53.378;10.022;2023-01-26T05:04:04;101956.00;;;-0.10
58929;BMP180;44713;53.378;10.022;2023-01-26T05:06:31;101963.00;;;0.00
58929;BMP180;44713;53.378;10.022;2023-01-26T05:08:57;101956.00;;;0.00
58929;BMP180;44713;53.378;10.022;2023-01-26T05:11:24;101959.00;;;-0.10
58929;BMP180;44713;53.378;10.022;2023-01-26T05:14:19;101951.00;;;-0.10
58929;BMP180;44713;53.378;10.022;2023-01-26T05:16:59;101954.00;;;0.00
58929;BMP180;44713;53.378;10.022;2023-01-26T05:19:41;101958.00;;;-0.10
58929;BMP180;44713;53.378;10.022;2023-01-26T05:22:26;101953.00;;;0.00
58929;BMP180;44713;53.378;10.022;2023-01-26T05:25:10;101952.00;;;0.00
58929;BMP180;44713;53.378;10.022;2023-01-26T05:27:43;101953.00;;;0.00
58929;BMP180;44713;53.378;10.022;2023-01-26T05:30:10;101957.00;;;0.00
58929;BMP180;44713;53.378;10.022;2023-01-26T05:32:36;101954.00;;;0.00
58929;BMP180;44713;53.378;10.022;2023-01-26T05:35:03;101948.00;;;0.00
58929;BMP180;44713;53.378;10.022;2023-01-26T05:37:30;101956.00;;;0.00
58929;BMP180;44713;53.378;10.022;2023-01-26T05:39:56;101952.00;;;0.10
58929;BMP180;44713;53.378;10.022;2023-01-26T05:42:22;101947.00;;;0.00
58929;BMP180;44713;53.378;10.022;2023-01-26T05:45:07;101953.00;;;0.00
58929;BMP180;44713;53.378;10.022;2023-01-26T05:47:33;101953.00;;;0.00
58929;BMP180;44713;53.378;10.022;2023-01-26T05:49:58;101953.00;;;0.10
58929;BMP180;44713;53.378;10.022;2023-01-26T05:52:26;101952.00;;;0.10
58929;BMP180;44713;53.378;10.022;2023-01-26T05:54:52;101956.00;;;0.10
58929;BMP180;44713;53.378;10.022;2023-01-26T05:57:18;101952.00;;;0.10
58929;BMP180;44713;53.378;10.022;2023-01-26T05:59:49;101963.00;;;0.10
58929;BMP180;44713;53.378;10.022;2023-01-26T06:02:15;101956.00;;;0.10
58929;BMP180;44713;53.378;10.022;2023-01-26T06:04:43;101959.00;;;0.10
58929;BMP180;44713;53.378;10.022;2023-01-26T06:07:08;101961.00;;;0.10
58929;BMP180;44713;53.378;10.022;2023-01-26T06:09:39;101956.00;;;0.10
58929;BMP180;44713;53.378;10.022;2023-01-26T06:12:19;101960.00;;;0.10
58929;BMP180;44713;53.378;10.022;2023-01-26T06:14:54;101959.00;;;0.10
58929;BMP180;44713;53.378;10.022;2023-01-26T06:17:20;101954.00;;;0.20
58929;BMP180;44713;53.378;10.022;2023-01-26T06:19:50;101959.00;;;0.10
58929;BMP180;44713;53.378;10.022;2023-01-26T06:22:15;101957.00;;;0.10
58929;BMP180;44713;53.378;10.022;2023-01-26T06:24:45;101956.00;;;0.20
58929;BMP180;44713;53.378;10.022;2023-01-26T06:27:13;101953.00;;;0.10
58929;BMP180;44713;53.378;10.022;2023-01-26T06:29:39;101958.00;;;0.20
58929;BMP180;44713;53.378;10.022;2023-01-26T06:32:05;101966.00;;;0.20
58929;BMP180;44713;53.378;10.022;2023-01-26T06:34:30;101968.00;;;0.20
58929;BMP180;44713;53.378;10.022;2023-01-26T06:36:57;101971.00;;;0.20
58929;BMP180;44713;53.378;10.022;2023-01-26T06:39:28;101972.00;;;0.20
58929;BMP180;44713;53.378;10.022;2023-01-26T06:41:54;101971.00;;;0.20
58929;BMP180;44713;53.378;10.022;2023-01-26T06:44:19;101976.00;;;0.10
58929;BMP180;44713;53.378;10.022;2023-01-26T06:46:45;101972.00;;;0.20
58929;BMP180;44713;53.378;10.022;2023-01-26T06:49:10;101971.00;;;0.20
58929;BMP180;44713;53.378;10.022;2023-01-26T06:51:55;101972.00;;;0.20
58929;BMP180;44713;53.378;10.022;2023-01-26T06:54:26;101971.00;;;0.20
58929;BMP180;44713;53.378;10.022;2023-01-26T06:57:07;101975.00;;;0.20
58929;BMP180;44713;53.378;10.022;2023-01-26T06:59:47;101975.00;;;0.20
58929;BMP180;44713;53.378;10.022;2023-01-26T07:02:33;101980.00;;;0.20
58929;BMP180;44713;53.378;10.022;2023-01-26T07:04:58;101973.00;;;0.20
58929;BMP180;44713;53.378;10.022;2023-01-26T07:07:23;101972.00;;;0.20
58929;BMP180;44713;53.378;10.022;2023-01-26T07:09:49;101976.00;;;0.30
58929;BMP180;44713;53.378;10.022;2023-01-26T07:12:14;101977.00;;;0.30
58929;BMP180;44713;53.378;10.022;2023-01-26T07:14:39;101974.00;;;0.30
58929;BMP180;44713;53.378;10.022;2023-01-26T07:17:05;101967.00;;;0.30
58929;BMP180;44713;53.378;10.022;2023-01-26T07:19:30;101967.00;;;0.40
58929;BMP180;44713;53.378;10.022;2023-01-26T07:21:57;101968.00;;;0.30
58929;BMP180;44713;53.378;10.022;2023-01-26T07:24:23;101976.00;;;0.40
58929;BMP180;44713;53.378;10.022;2023-01-26T07:26:48;101980.00;;;0.40
58929;BMP180;44713;53.378;10.022;2023-01-26T07:29:13;101979.00;;;0.40
58929;BMP180;44713;53.378;10.022;2023-01-26T07:31:39;101993.00;;;0.40
58929;BMP180;44713;53.378;10.022;2023-01-26T07:34:05;101992.00;;;0.40
58929;BMP180;44713;53.378;10.022;2023-01-26T07:36:31;101980.00;;;0.40
58929;BMP180;44713;53.378;10.022;2023-01-26T07:38:56;101988.00;;;0.50
58929;BMP180;44713;53.378;10.022;2023-01-26T07:41:22;101997.00;;;0.50
58929;BMP180;44713;53.378;10.022;2023-01-26T07:43:47;101994.00;;;0.50
58929;BMP180;44713;53.378;10.022;2023-01-26T07:46:14;102000.00;;;0.40
58929;BMP180;44713;53.378;10.022;2023-01-26T07:48:39;101999.00;;;0.50
58929;BMP180;44713;53.378;10.022;2023-01-26T07:51:05;101996.00;;;0.50
58929;BMP180;44713;53.378;10.022;2023-01-26T07:53:32;101993.00;;;0.50
58929;BMP180;44713;53.378;10.022;2023-01-26T07:56:12;101983.00;;;0.50
58929;BMP180;44713;53.378;10.022;2023-01-26T07:58:38;101983.00;;;0.60
58929;BMP180;44713;53.378;10.022;2023-01-26T08:01:12;101986.00;;;0.60
58929;BMP180;44713;53.378;10.022;2023-01-26T08:03:38;101988.00;;;0.60
58929;BMP180;44713;53.378;10.022;2023-01-26T08:06:04;101995.00;;;0.60
58929;BMP180;44713;53.378;10.022;2023-01-26T08:08:30;101993.00;;;0.50
58929;BMP180;44713;53.378;10.022;2023-01-26T08:10:57;101993.00;;;0.50
58929;BMP180;44713;53.378;10.022;2023-01-26T08:13:23;101994.00;;;0.60
58929;BMP180;44713;53.378;10.022;2023-01-26T08:15:48;101987.00;;;0.60
58929;BMP180;44713;53.378;10.022;2023-01-26T08:18:14;101992.00;;;0.60
58929;BMP180;44713;53.378;10.022;2023-01-26T08:20:39;101992.00;;;0.70
58929;BMP180;44713;53.378;10.022;2023-01-26T08:23:04;101987.00;;;0.70
58929;BMP180;44713;53.378;10.022;2023-01-26T08:25:30;101990.00;;;0.80
58929;BMP180;44713;53.378;10.022;2023-01-26T08:27:57;101999.00;;;0.80
58929;BMP180;44713;53.378;10.022;2023-01-26T08:30:22;102000.00;;;0.70
58929;BMP180;44713;53.378;10.022;2023-01-26T08:32:47;101990.00;;;0.70
58929;BMP180;44713;53.378;10.022;2023-01-26T08:35:13;101995.00;;;0.70
58929;BMP180;44713;53.378;10.022;2023-01-26T08:37:38;101992.00;;;0.60
58929;BMP180;44713;53.378;10.022;2023-01-26T08:40:05;101999.00;;;0.60
58929;BMP180;44713;53.378;10.022;2023-01-26T08:42:31;101993.00;;;0.60
58929;BMP180;44713;53.378;10.022;2023-01-26T08:44:56;102001.00;;;0.60
58929;BMP180;44713;53.378;10.022;2023-01-26T08:47:21;102010.00;;;0.70
58929;BMP180;44713;53.378;10.022;2023-01-26T08:49:47;102010.00;;;0.60
58929;BMP180;44713;53.378;10.022;2023-01-26T08:52:12;101998.00;;;0.70
58929;BMP180;44713;53.378;10.022;2023-01-26T08:54:37;102005.00;;;0.70
58929;BMP180;44713;53.378;10.022;2023-01-26T08:57:03;102011.00;;;0.70
58929;BMP180;44713;53.378;10.022;2023-01-26T08:59:28;102003.00;;;0.70
58929;BMP180;44713;53.378;10.022;2023-01-26T09:01:53;101996.00;;;0.80
58929;BMP180;44713;53.378;10.022;2023-01-26T09:04:19;101998.00;;;0.80
58929;BMP180;44713;53.378;10.022;2023-01-26T09:06:45;101999.00;;;0.80
58929;BMP180;44713;53.378;10.022;2023-01-26T09:09:10;101999.00;;;0.90
58929;BMP180;44713;53.378;10.022;2023-01-26T09:11:38;101996.00;;;0.80
58929;BMP180;44713;53.378;10.022;2023-01-26T09:14:03;102004.00;;;0.90
58929;BMP180;44713;53.378;10.022;2023-01-26T09:16:29;101996.00;;;0.90
58929;BMP180;44713;53.378;10.022;2023-01-26T09:18:54;101993.00;;;0.90
58929;BMP180;44713;53.378;10.022;2023-01-26T09:21:19;101996.00;;;1.00
58929;BMP180;44713;53.378;10.022;2023-01-26T09:23:45;101988.00;;;1.00
58929;BMP180;44713;53.378;10.022;2023-01-26T09:26:11;101993.00;;;1.00
58929;BMP180;44713;53.378;10.022;2023-01-26T09:28:36;101996.00;;;1.10
58929;BMP180;44713;53.378;10.022;2023-01-26T09:31:07;101990.00;;;1.10
58929;BMP180;44713;53.378;10.022;2023-01-26T09:33:33;102001.00;;;1.20
58929;BMP180;44713;53.378;10.022;2023-01-26T09:36:07;102006.00;;;1.20
58929;BMP180;44713;53.378;10.022;2023-01-26T09:38:33;101997.00;;;1.30
58929;BMP180;44713;53.378;10.022;2023-01-26T09:43:47;101988.00;;;1.20
58929;BMP180;44713;53.378;10.022;2023-01-26T09:49:05;101988.00;;;1.20
58929;BMP180;44713;53.378;10.022;2023-01-26T09:51:42;101991.00;;;1.20
58929;BMP180;44713;53.378;10.022;2023-01-26T09:54:31;101992.00;;;1.20
58929;BMP180;44713;53.378;10.022;2023-01-26T09:57:12;101984.00;;;1.20
58929;BMP180;44713;53.378;10.022;2023-01-26T09:59:49;101996.00;;;1.30
58929;BMP180;44713;53.378;10.022;2023-01-26T10:05:15;101993.00;;;1.30
58929;BMP180;44713;53.378;10.022;2023-01-26T10:07:43;101992.00;;;1.30
58929;BMP180;44713;53.378;10.022;2023-01-26T10:10:16;101977.00;;;1.30
58929;BMP180;44713;53.378;10.022;2023-01-26T10:12:43;101965.00;;;1.40
58929;BMP180;44713;53.378;10.022;2023-01-26T10:17:51;101960.00;;;1.50
58929;BMP180;44713;53.378;10.022;2023-01-26T10:20:54;101961.00;;;1.50
58929;BMP180;44713;53.378;10.022;2023-01-26T10:23:24;101967.00;;;1.50
58929;BMP180;44713;53.378;10.022;2023-01-26T10:25:52;101968.00;;;1.60
58929;BMP180;44713;53.378;10.022;2023-01-26T10:28:24;101963.00;;;1.70
58929;BMP180;44713;53.378;10.022;2023-01-26T10:30:50;101963.00;;;1.60
58929;BMP180;44713;53.378;10.022;2023-01-26T10:33:33;101972.00;;;1.60
58929;BMP180;44713;53.378;10.022;2023-01-26T10:36:00;101966.00;;;1.60
58929;BMP180;44713;53.378;10.022;2023-01-26T10:41:02;101968.00;;;1.50
58929;BMP180;44713;53.378;10.022;2023-01-26T10:43:28;101962.00;;;1.50
58929;BMP180;44713;53.378;10.022;2023-01-26T10:45:55;101960.00;;;1.50
58929;BMP180;44713;53.378;10.022;2023-01-26T10:48:24;101968.00;;;1.60
58929;BMP180;44713;53.378;10.022;2023-01-26T10:50:51;101951.00;;;1.60
58929;BMP180;44713;53.378;10.022;2023-01-26T10:53:24;101959.00;;;1.50
58929;BMP180;44713;53.378;10.022;2023-01-26T10:56:12;101956.00;;;1.60
58929;BMP180;44713;53.378;10.022;2023-01-26T10:58:54;101946.00;;;1.60
58929;BMP180;44713;53.378;10.022;2023-01-26T11:01:22;101950.00;;;1.70
58929;BMP180;44713;53.378;10.022;2023-01-26T11:04:11;101948.00;;;1.70
58929;BMP180;44713;53.378;10.022;2023-01-26T11:06:38;101961.00;;;1.70
58929;BMP180;44713;53.378;10.022;2023-01-26T11:11:38;101941.00;;;1.70
58929;BMP180;44713;53.378;10.022;2023-01-26T11:14:17;101949.00;;;1.80
58929;BMP180;44713;53.378;10.022;2023-01-26T11:16:49;101951.00;;;1.80
58929;BMP180;44713;53.378;10.022;2023-01-26T11:19:39;101952.00;;;1.80
58929;BMP180;44713;53.378;10.022;2023-01-26T11:22:19;101960.00;;;1.80
58929;BMP180;44713;53.378;10.022;2023-01-26T11:25:02;101958.00;;;1.70
58929;BMP180;44713;53.378;10.022;2023-01-26T11:27:50;101953.00;;;1.80
58929;BMP180;44713;53.378;10.022;2023-01-26T11:33:16;101947.00;;;1.80
58929;BMP180;44713;53.378;10.022;2023-01-26T11:36:01;101948.00;;;1.80
58929;BMP180;44713;53.378;10.022;2023-01-26T11:38:40;101942.00;;;1.70
58929;BMP180;44713;53.378;10.022;2023-01-26T11:41:17;101935.00;;;1.80
58929;BMP180;44713;53.378;10.022;2023-01-26T11:46:51;101935.00;;;1.90
58929;BMP180;44713;53.378;10.022;2023-01-26T11:49:27;101928.00;;;2.00
58929;BMP180;44713;53.378;10.022;2023-01-26T11:55:05;101910.00;;;2.10
58929;BMP180;44713;53.378;10.022;2023-01-26T12:00:22;101908.00;;;2.10
58929;BMP180;44713;53.378;10.022;2023-01-26T12:02:59;101901.00;;;2.10
58929;BMP180;44713;53.378;10.022;2023-01-26T12:05:30;101905.00;;;2.20
58929;BMP180;44713;53.378;10.022;2023-01-26T12:08:25;101905.00;;;2.20
58929;BMP180;44713;53.378;10.022;2023-01-26T12:13:37;101899.00;;;2.30
58929;BMP180;44713;53.378;10.022;2023-01-26T12:16:12;101898.00;;;2.20
58929;BMP180;44713;53.378;10.022;2023-01-26T12:18:45;101888.00;;;2.30
58929;BMP180;44713;53.378;10.022;2023-01-26T12:21:12;101893.00;;;2.30
58929;BMP180;44713;53.378;10.022;2023-01-26T12:23:42;101886.00;;;2.30
58929;BMP180;44713;53.378;10.022;2023-01-26T12:26:20;101877.00;;;2.40
58929;BMP180;44713;53.378;10.022;2023-01-26T12:28:53;101871.00;;;2.50
58929;BMP180;44713;53.378;10.022;2023-01-26T12:31:34;101874.00;;;2.40
58929;BMP180;44713;53.378;10.022;2023-01-26T12:34:00;101877.00;;;2.40
58929;BMP180;44713;53.378;10.022;2023-01-26T12:36:34;101873.00;;;2.50
58929;BMP180;44713;53.378;10.022;2023-01-26T12:39:20;101869.00;;;2.50
58929;BMP180;44713;53.378;10.022;2023-01-26T12:42:01;101869.00;;;2.50
58929;BMP180;44713;53.378;10.022;2023-01-26T12:44:41;101872.00;;;2.50
58929;BMP180;44713;53.378;10.022;2023-01-26T12:52:18;101859.00;;;2.60
58929;BMP180;44713;53.378;10.022;2023-01-26T12:54:53;101856.00;;;2.60
58929;BMP180;44713;53.378;10.022;2023-01-26T12:57:24;101845.00;;;2.60
58929;BMP180;44713;53.378;10.022;2023-01-26T12:59:52;101843.00;;;2.70
58929;BMP180;44713;53.378;10.022;2023-01-26T13:02:29;101845.00;;;2.70
58929;BMP180;44713;53.378;10.022;2023-01-26T13:04:57;101840.00;;;2.80
58929;BMP180;44713;53.378;10.022;2023-01-26T13:07:31;101835.00;;;2.90
58929;BMP180;44713;53.378;10.022;2023-01-26T13:10:07;101848.00;;;2.90
58929;BMP180;44713;53.378;10.022;2023-01-26T13:15:19;101864.00;;;2.80
58929;BMP180;44713;53.378;10.022;2023-01-26T13:18:02;101855.00;;;2.70
58929;BMP180;44713;53.378;10.022;2023-01-26T13:20:47;101861.00;;;2.70
58929;BMP180;44713;53.378;10.022;2023-01-26T13:26:20;101865.00;;;2.60
58929;BMP180;44713;53.378;10.022;2023-01-26T13:28:48;101854.00;;;2.70
58929;BMP180;44713;53.378;10.022;2023-01-26T13:31:33;101854.00;;;2.70
58929;BMP180;44713;53.378;10.022;2023-01-26T13:34:06;101856.00;;;2.70
58929;BMP180;44713;53.378;10.022;2023-01-26T13:36:35;101845.00;;;2.70
58929;BMP180;44713;53.378;10.022;2023-01-26T13:39:20;101859.00;;;2.80
58929;BMP180;44713;53.378;10.022;2023-01-26T13:41:48;101869.00;;;2.70
58929;BMP180;44713;53.378;10.022;2023-01-26T13:44:19;101854.00;;;2.70
58929;BMP180;44713;53.378;10.022;2023-01-26T13:46:59;101859.00;;;2.70
58929;BMP180;44713;53.378;10.022;2023-01-26T13:49:27;101869.00;;;2.70
58929;BMP180;44713;53.378;10.022;2023-01-26T13:52:01;101875.00;;;2.60
58929;BMP180;44713;53.378;10.022;2023-01-26T13:54:26;101869.00;;;2.70
58929;BMP180;44713;53.378;10.022;2023-01-26T13:57:20;101861.00;;;2.70
58929;BMP180;44713;53.378;10.022;2023-01-26T13:59:57;101876.00;;;2.80
58929;BMP180;44713;53.378;10.022;2023-01-26T14:04:53;101877.00;;;2.70
58929;BMP180;44713;53.378;10.022;2023-01-26T14:07:23;101884.00;;;2.70
58929;BMP180;44713;53.378;10.022;2023-01-26T14:09:51;101893.00;;;2.70
58929;BMP180;44713;53.378;10.022;2023-01-26T14:12:23;101893.00;;;2.70
58929;BMP180;44713;53.378;10.022;2023-01-26T14:14:56;101897.00;;;2.70
58929;BMP180;44713;53.378;10.022;2023-01-26T14:17:28;101898.00;;;2.70
58929;BMP180;44713;53.378;10.022;2023-01-26T14:19:55;101891.00;;;2.70
58929;BMP180;44713;53.378;10.022;2023-01-26T14:22:20;101892.00;;;2.70
58929;BMP180;44713;53.378;10.022;2023-01-26T14:24:50;101902.00;;;2.70
58929;BMP180;44713;53.378;10.022;2023-01-26T14:27:25;101905.00;;;2.70
58929;BMP180;44713;53.378;10.022;2023-01-26T14:29:52;101897.00;;;2.70
58929;BMP180;44713;53.378;10.022;2023-01-26T14:32:18;101901.00;;;2.80
58929;BMP180;44713;53.378;10.022;2023-01-26T14:34:54;101898.00;;;2.70
58929;BMP180;44713;53.378;10.022;2023-01-26T14:37:20;101895.00;;;2.70
58929;BMP180;44713;53.378;10.022;2023-01-26T14:39:46;101892.00;;;2.70
58929;BMP180;44713;53.378;10.022;2023-01-26T14:42:18;101881.00;;;2.70
58929;BMP180;44713;53.378;10.022;2023-01-26T14:44:44;101880.00;;;2.70
58929;BMP180;44713;53.378;10.022;2023-01-26T14:47:28;101892.00;;;2.80
58929;BMP180;44713;53.378;10.022;2023-01-26T14:50:01;101884.00;;;2.80
58929;BMP180;44713;53.378;10.022;2023-01-26T14:52:30;101884.00;;;2.90
58929;BMP180;44713;53.378;10.022;2023-01-26T14:55:22;101885.00;;;2.90
58929;BMP180;44713;53.378;10.022;2023-01-26T14:57:49;101892.00;;;2.80
58929;BMP180;44713;53.378;10.022;2023-01-26T15:00:26;101895.00;;;2.90
58929;BMP180;44713;53.378;10.022;2023-01-26T15:02:54;101898.00;;;2.90
58929;BMP180;44713;53.378;10.022;2023-01-26T15:05:22;101889.00;;;2.90